Kezdőlap
METAR-TAF:

METAR-TAF

Repülőterek :

Tepic, Mexikó

földrajzi szélesség: 21-31N, földrajzi hosszúság: 104-54W, magasság: 922 m

Jelenlegi meteorológiai megfigyelések

A jelentés 1 órával és 0 perccel ezelõtt készült, 20:48 UTC
Dél-délnyugati szél 14 kt
Hőmérséklet 35°C
Páratartalom 32%
Légköri nyomás 1017 hPa
Látótávolság: 12.9 km
Derült ég

METAR: MMEP 292048Z 20014KT 8SM SKC 35/16 A3004 RMK SLP124 57018 969 HZY

Idő: 15:48 (21:48 UTC)

Előrejelzés

A jelentés 4 órával és 54 perccel ezelõtt készült, 16:54 UTC
Az előrejelzés 29-én 18 óra UTC és 30-én 18 óra UTC között érvényes
Nyugat-délnyugati szél 10 kt
Látótávolság: 9.7 km
Derült ég
Száraz légköri homály
30-én 0200 órától UTC szerint
Északi szél kt
Látótávolság: 10 km
Derült ég

TAF: MMEP 291654Z 2918/3018 24010KT 6SM HZ SKC FM300200 00000KT P6SM SKC

Meteorológiai megfigyelések és előrejelzések több, mint 4000 repülőtéren (METAR és TAF jelentéseket).

A térképen piros és sárga pontok jelzik az elérhető meteorológiai állomásokat.

Mozgassa az egeret a pont fölött, hogy megjelenjen az állomás neve.

Azután kattintson az időjárási megfigyelések és előrejelzések megtekintéséhez.

A térkép megváltoztatása: kattintson a fekete keresztel jelölt zöld gombra ráközelítéshez, a vonallal jelölt zöld gombra távolításhoz, vagy a zöld nyilakra a szomszédos térképek eléréséhez.


METAR-TAF: